createdAt,value
2023-04-01T00:00:27.988Z,13.25
2023-04-01T00:04:40.549Z,12.10
2023-04-01T00:08:54.449Z,11.13
2023-04-01T00:13:08.272Z,11.23
2023-04-01T00:17:20.665Z,12.23
2023-04-01T00:21:34.968Z,12.85
2023-04-01T00:25:49.421Z,14.27
2023-04-01T00:30:02.469Z,11.70
2023-04-01T00:34:16.541Z,10.32
2023-04-01T00:38:28.932Z,13.15
2023-04-01T00:42:41.509Z,14.00
2023-04-01T00:46:54.134Z,15.18
2023-04-01T00:51:15.734Z,14.07
2023-04-01T00:55:32.556Z,14.95
2023-04-01T00:59:49.569Z,13.80
2023-04-01T01:04:03.539Z,11.40
2023-04-01T01:08:39.368Z,9.73
2023-04-01T01:13:18.626Z,15.50
2023-04-01T01:17:50.248Z,11.13
2023-04-01T01:22:41.200Z,10.90
2023-04-01T01:27:13.035Z,13.80
2023-04-01T01:31:45.891Z,12.80
2023-04-01T01:36:01.425Z,12.35
2023-04-01T01:40:17.466Z,12.55
2023-04-01T01:44:32.060Z,11.65
2023-04-01T01:48:47.178Z,14.10
2023-04-01T01:53:09.965Z,12.68
2023-04-01T01:57:36.345Z,13.68
2023-04-01T02:01:53.945Z,9.50
2023-04-01T02:06:09.732Z,12.25
2023-04-01T02:10:26.801Z,13.43
2023-04-01T02:14:52.851Z,12.60
2023-04-01T02:19:10.864Z,9.32
2023-04-01T02:23:23.792Z,10.40
2023-04-01T02:27:36.291Z,11.82
2023-04-01T02:31:50.645Z,11.88
2023-04-01T02:36:03.265Z,10.73
2023-04-01T02:40:17.574Z,14.07
2023-04-01T02:44:30.753Z,16.65
2023-04-01T02:48:44.014Z,16.60
2023-04-01T02:52:57.383Z,22.23
2023-04-01T02:57:09.807Z,23.25
2023-04-01T03:01:23.516Z,20.90
2023-04-01T03:05:36.191Z,27.17
2023-04-01T03:09:48.709Z,23.10
2023-04-01T03:14:01.458Z,24.02
2023-04-01T03:18:13.934Z,18.65
2023-04-01T03:22:26.391Z,20.38
2023-04-01T03:26:38.752Z,19.85
2023-04-01T03:30:51.202Z,17.02
2023-04-01T03:35:03.894Z,17.77
2023-04-01T03:39:19.873Z,17.92
2023-04-01T03:43:32.368Z,21.85
2023-04-01T03:47:44.950Z,16.63
2023-04-01T03:51:59.757Z,17.23
2023-04-01T03:56:12.451Z,16.13
2023-04-01T04:00:24.944Z,17.35
2023-04-01T04:04:41.093Z,21.17
2023-04-01T04:08:54.811Z,27.65
2023-04-01T04:13:07.862Z,17.48
2023-04-01T04:17:24.993Z,19.80
2023-04-01T04:21:37.871Z,24.77
2023-04-01T04:26:02.700Z,22.60
2023-04-01T04:30:15.653Z,17.88
2023-04-01T04:34:28.545Z,17.77
2023-04-01T04:38:40.925Z,16.50
2023-04-01T04:42:53.529Z,18.33
2023-04-01T04:47:06.300Z,18.92
2023-04-01T04:51:20.658Z,14.75
2023-04-01T04:55:33.425Z,15.32
2023-04-01T05:00:11.531Z,16.60
2023-04-01T05:04:42.220Z,14.48
2023-04-01T05:08:57.891Z,12.70
2023-04-01T05:13:10.586Z,19.55
2023-04-01T05:17:23.112Z,13.50
2023-04-01T05:21:35.819Z,18.55
2023-04-01T05:25:53.970Z,12.20
2023-04-01T05:30:07.642Z,11.40
2023-04-01T05:34:52.324Z,18.45
2023-04-01T05:39:05.845Z,10.55
2023-04-01T05:43:18.294Z,12.85
2023-04-01T05:47:35.121Z,14.23
2023-04-01T05:51:47.464Z,17.45
2023-04-01T05:56:04.846Z,15.93
2023-04-01T06:00:22.326Z,13.75
2023-04-01T06:04:39.877Z,13.65
2023-04-01T06:08:54.337Z,12.48
2023-04-01T06:13:27.783Z,17.75
2023-04-01T06:17:54.417Z,29.17
2023-04-01T06:22:21.241Z,24.73
2023-04-01T06:27:01.159Z,38.25
2023-04-01T06:31:40.366Z,41.55
2023-04-01T06:36:03.860Z,41.70
2023-04-01T06:40:41.187Z,33.58
2023-04-01T06:45:28.947Z,36.20
2023-04-01T06:50:09.445Z,43.97
2023-04-01T06:55:26.719Z,17.10
2023-04-01T07:00:02.535Z,27.02
2023-04-01T07:04:33.582Z,32.75
2023-04-01T07:08:47.166Z,24.42
2023-04-01T07:13:05.847Z,26.92
2023-04-01T07:17:44.525Z,26.65
2023-04-01T07:22:03.161Z,22.95
2023-04-01T07:26:36.109Z,23.80
2023-04-01T07:31:24.360Z,17.52
2023-04-01T07:35:47.059Z,19.85
2023-04-01T07:40:22.849Z,22.52
2023-04-01T07:44:56.869Z,25.50
2023-04-01T07:49:33.492Z,22.13
2023-04-01T07:54:05.095Z,22.45
2023-04-01T07:58:44.818Z,23.90
2023-04-01T08:03:18.634Z,20.38
2023-04-01T08:07:47.130Z,21.48
2023-04-01T08:12:49.278Z,19.25
2023-04-01T08:17:35.212Z,26.10
2023-04-01T08:21:53.653Z,23.08
2023-04-01T08:26:27.737Z,23.92
2023-04-01T08:31:06.108Z,30.83
2023-04-01T08:35:25.782Z,22.63
2023-04-01T08:39:46.042Z,25.10
2023-04-01T08:44:23.105Z,20.65
2023-04-01T08:48:45.375Z,22.10
2023-04-01T08:53:19.836Z,23.98
2023-04-01T08:57:39.597Z,30.95
2023-04-01T09:02:57.975Z,30.23
2023-04-01T09:07:43.634Z,33.70
2023-04-01T09:12:31.202Z,26.85
2023-04-01T09:17:05.133Z,28.38
2023-04-01T09:21:38.538Z,20.10
2023-04-01T09:26:08.715Z,22.42
2023-04-01T09:34:56.049Z,29.02
2023-04-01T09:39:32.645Z,33.78
2023-04-01T09:44:05.149Z,27.02
2023-04-01T09:48:49.243Z,27.20
2023-04-01T09:53:29.152Z,21.42
2023-04-01T09:58:11.473Z,24.83
2023-04-01T10:03:07.768Z,26.88
2023-04-01T10:07:58.117Z,29.55
2023-04-01T10:12:33.762Z,20.38
2023-04-01T10:17:24.786Z,27.67
2023-04-01T10:21:59.251Z,23.40
2023-04-01T10:26:26.949Z,28.98
2023-04-01T10:31:11.573Z,28.45
2023-04-01T10:35:49.233Z,30.50
2023-04-01T10:40:14.159Z,33.10
2023-04-01T10:45:17.127Z,32.65
2023-04-01T10:49:58.531Z,28.98
2023-04-01T10:54:58.360Z,30.73
2023-04-01T10:59:49.270Z,25.30
2023-04-01T11:05:04.156Z,28.83
2023-04-01T11:09:59.704Z,27.08
2023-04-01T11:14:27.816Z,31.13
2023-04-01T11:19:17.829Z,31.00
2023-04-01T11:24:05.620Z,29.60
2023-04-01T11:28:50.587Z,27.83
2023-04-01T11:33:24.312Z,33.47
2023-04-01T11:38:22.149Z,31.45
2023-04-01T11:43:32.303Z,25.50
2023-04-01T11:48:45.946Z,28.13
2023-04-01T11:53:14.732Z,24.02
2023-04-01T11:57:52.679Z,27.77
2023-04-01T12:02:30.815Z,22.65
2023-04-01T12:07:36.845Z,25.25
2023-04-01T12:12:17.756Z,22.55
2023-04-01T12:16:51.970Z,25.63
2023-04-01T12:21:26.168Z,22.23
2023-04-01T12:25:38.543Z,23.55
2023-04-01T12:30:12.492Z,19.55
2023-04-01T12:34:52.079Z,22.80
2023-04-01T12:39:22.224Z,19.50
2023-04-01T12:48:19.786Z,27.88
2023-04-01T12:52:57.581Z,17.45
2023-04-01T12:57:55.099Z,18.55
2023-04-01T13:02:15.655Z,21.17
2023-04-01T13:07:04.514Z,14.18
2023-04-01T13:11:41.655Z,16.00
2023-04-01T13:16:00.002Z,21.52
2023-04-01T13:20:50.088Z,11.18
2023-04-01T13:25:27.301Z,11.60
2023-04-01T13:30:08.949Z,15.77
2023-04-01T13:34:58.426Z,17.80
2023-04-01T13:39:29.282Z,13.15
2023-04-01T13:43:50.782Z,10.00
2023-04-01T13:48:16.400Z,12.95
2023-04-01T13:52:55.022Z,21.75
2023-04-01T13:57:30.790Z,12.55
2023-04-01T14:02:12.146Z,17.83
2023-04-01T14:06:39.228Z,9.52
2023-04-01T14:10:51.540Z,14.65
2023-04-01T14:15:23.512Z,13.32
2023-04-01T14:19:49.558Z,12.00
2023-04-01T14:24:31.428Z,14.65
2023-04-01T14:28:53.136Z,10.02
2023-04-01T14:33:15.064Z,9.45
2023-04-01T14:37:42.555Z,7.05
2023-04-01T14:42:25.077Z,8.98
2023-04-01T14:47:04.643Z,9.30
2023-04-01T14:51:41.214Z,10.27
2023-04-01T14:56:07.457Z,6.15
2023-04-01T15:00:20.299Z,9.20
2023-04-01T15:05:14.241Z,11.68
2023-04-01T15:09:41.753Z,8.18
2023-04-01T15:14:30.639Z,7.40
2023-04-01T15:19:02.393Z,10.20
2023-04-01T15:23:43.827Z,11.57
2023-04-01T15:28:04.876Z,12.10
2023-04-01T15:32:34.213Z,12.77
2023-04-01T15:37:14.952Z,9.83
2023-04-01T15:41:56.600Z,8.43
2023-04-01T15:46:30.023Z,11.57
2023-04-01T15:50:56.331Z,11.45
2023-04-01T15:55:38.458Z,11.35
2023-04-01T15:59:56.330Z,14.65
2023-04-01T16:04:22.562Z,13.32
2023-04-01T16:08:53.906Z,12.20
2023-04-01T16:13:30.717Z,13.15
2023-04-01T16:18:13.029Z,12.95
2023-04-01T16:22:36.993Z,11.15
2023-04-01T16:27:04.977Z,11.25
2023-04-01T16:31:33.896Z,14.98
2023-04-01T16:36:11.724Z,11.57
2023-04-01T16:40:44.552Z,15.80
2023-04-01T16:45:20.634Z,9.63
2023-04-01T16:49:43.722Z,17.10
2023-04-01T16:54:12.126Z,11.93
2023-04-01T16:58:38.285Z,9.70
2023-04-01T17:03:03.332Z,14.40
2023-04-01T17:07:39.846Z,23.00
2023-04-01T17:12:01.381Z,11.77
2023-04-01T17:16:30.527Z,11.93
2023-04-01T17:20:50.219Z,17.38
2023-04-01T17:25:06.612Z,16.60
2023-04-01T17:29:37.147Z,13.98
2023-04-01T17:33:54.057Z,19.83
2023-04-01T17:38:22.100Z,20.88
2023-04-01T17:42:52.738Z,19.80
2023-04-01T17:47:17.229Z,18.17
2023-04-01T17:51:39.995Z,22.25
2023-04-01T17:56:22.932Z,19.88
2023-04-01T18:01:04.515Z,20.83
2023-04-01T18:05:54.611Z,19.95
2023-04-01T18:10:37.559Z,24.42
2023-04-01T18:15:17.197Z,25.92
2023-04-01T18:19:53.196Z,30.58
2023-04-01T18:24:33.457Z,26.95
2023-04-01T18:29:10.204Z,30.88
2023-04-01T18:33:32.655Z,32.15
2023-04-01T18:37:48.160Z,26.73
2023-04-01T18:42:19.139Z,35.97
2023-04-01T18:46:54.394Z,40.03
2023-04-01T18:51:20.209Z,38.35
2023-04-01T18:55:46.612Z,43.97
2023-04-01T19:00:08.764Z,26.95
2023-04-01T19:04:40.258Z,23.05
2023-04-01T19:08:54.994Z,25.25
2023-04-01T19:13:36.157Z,27.92
2023-04-01T19:18:37.618Z,23.33
2023-04-01T19:23:27.553Z,21.23
2023-04-01T19:27:53.222Z,22.85
2023-04-01T19:32:14.540Z,19.20
2023-04-01T19:36:51.632Z,21.95
2023-04-01T19:41:09.871Z,16.35
2023-04-01T19:46:01.147Z,18.85
2023-04-01T19:55:17.894Z,18.02
2023-04-01T19:59:47.619Z,22.58
2023-04-01T20:04:06.176Z,22.15
2023-04-01T20:08:49.959Z,19.80
2023-04-01T20:13:15.290Z,19.10
2023-04-01T20:17:34.767Z,16.15
2023-04-01T20:21:49.216Z,26.67
2023-04-01T20:26:11.111Z,20.33
2023-04-01T20:30:52.416Z,15.73
2023-04-01T20:35:55.361Z,15.82
2023-04-01T20:40:35.698Z,17.85
2023-04-01T20:45:03.571Z,15.35
2023-04-01T20:49:45.792Z,13.75
2023-04-01T20:54:43.868Z,19.15
2023-04-01T20:59:08.891Z,16.65
2023-04-01T21:03:31.190Z,15.25
2023-04-01T21:07:50.852Z,13.80
2023-04-01T21:12:21.818Z,13.70
2023-04-01T21:16:48.943Z,16.08
2023-04-01T21:21:23.231Z,17.77
2023-04-01T21:25:46.659Z,12.45
2023-04-01T21:30:19.286Z,14.02
2023-04-01T21:34:47.737Z,12.50
2023-04-01T21:39:23.044Z,12.85
2023-04-01T21:43:48.087Z,14.18
2023-04-01T21:48:30.239Z,15.43
2023-04-01T21:53:20.295Z,14.95
2023-04-01T21:57:47.501Z,17.25
2023-04-01T22:02:24.643Z,15.40
2023-04-01T22:06:43.185Z,13.20
2023-04-01T22:11:05.397Z,13.52
2023-04-01T22:15:30.706Z,16.95
2023-04-01T22:19:52.179Z,19.35
2023-04-01T22:24:25.649Z,15.23
2023-04-01T22:28:52.153Z,16.52
2023-04-01T22:33:27.530Z,13.07
2023-04-01T22:37:51.240Z,14.07
2023-04-01T22:42:06.546Z,15.40
2023-04-01T22:46:30.615Z,13.98
2023-04-01T22:50:45.999Z,12.15
2023-04-01T22:55:04.666Z,14.52
2023-04-01T22:59:19.593Z,11.38
2023-04-01T23:03:46.940Z,11.00
2023-04-01T23:08:36.737Z,11.57
2023-04-01T23:12:51.124Z,11.18
2023-04-01T23:17:37.338Z,9.73
2023-04-01T23:22:32.882Z,10.18
2023-04-01T23:26:51.916Z,9.68
2023-04-01T23:31:05.564Z,13.73
2023-04-01T23:35:18.326Z,12.38
2023-04-01T23:39:39.548Z,12.95
2023-04-01T23:44:01.963Z,17.80
2023-04-01T23:48:17.850Z,12.00
2023-04-01T23:52:55.068Z,11.13
2023-04-01T23:57:14.907Z,10.18
